Time;durP1;ratioP1;P1;durP2;ratioP2;P2;SDS_P1;SDS_P2;PMS_P1;PMS_P2;Temp;Humidity;BMP_temperature;BMP_pressure;BME280_temperature;BME280_humidity;BME280_pressure;Samples;Min_cycle;Max_cycle;Signal;HPM_P1;HPM_P2
2022/10/13 00:08:29;;;;;;;43.90;29.20;;;;;;;2.25;73.64;100465.67;419997;1274;146826;-69
2022/10/13 00:18:34;;;;;;;47.10;28.70;;;;;;;2.07;73.48;100466.62;419966;1274;142350;-68
2022/10/13 00:28:40;;;;;;;41.00;27.50;;;;;;;1.98;73.82;100464.52;421740;1274;143860;-69
2022/10/13 00:38:47;;;;;;;39.40;26.10;;;;;;;1.90;74.49;100457.71;419509;1275;147238;-68
2022/10/13 00:48:54;;;;;;;36.40;26.60;;;;;;;1.94;75.20;100449.36;419914;1275;143698;-70
2022/10/13 00:59:03;;;;;;;36.60;22.00;;;;;;;2.13;76.82;100448.06;421368;1275;142928;-69
2022/10/13 01:09:09;;;;;;;30.80;20.50;;;;;;;2.17;76.82;100442.13;421385;1279;199736;-69
2022/10/13 01:19:34;;;;;;;38.30;24.40;;;;;;;2.09;77.03;100436.03;420264;1275;150890;-68
2022/10/13 01:30:06;;;;;;;42.60;26.00;;;;;;;2.04;77.07;100425.75;419806;1274;145787;-68
2022/10/13 01:40:23;;;;;;;40.70;21.80;;;;;;;1.84;76.19;100414.80;422665;1275;142323;-70
2022/10/13 01:50:30;;;;;;;34.90;19.70;;;;;;;1.76;76.86;100397.31;420042;1275;142717;-69
2022/10/13 02:00:43;;;;;;;26.80;18.10;;;;;;;1.98;78.48;100385.95;422126;1275;143920;-69
2022/10/13 02:10:57;;;;;;;26.80;18.50;;;;;;;2.09;79.44;100372.98;422613;1274;143926;-68
2022/10/13 02:21:04;;;;;;;27.10;18.00;;;;;;;2.36;80.29;100364.93;420069;1274;142630;-67
2022/10/13 02:31:10;;;;;;;28.00;17.20;;;;;;;2.34;80.36;100358.39;420348;1275;143763;-69
2022/10/13 02:41:16;;;;;;;27.10;18.30;;;;;;;2.39;80.81;100355.02;419452;1275;155301;-67
2022/10/13 02:51:22;;;;;;;32.40;19.30;;;;;;;2.34;81.17;100362.02;421163;1281;188136;-69
2022/10/13 03:01:28;;;;;;;25.90;18.20;;;;;;;2.26;81.32;100355.09;422244;1281;144195;-68
2022/10/13 03:11:34;;;;;;;31.70;19.40;;;;;;;2.39;82.08;100347.77;420713;1281;198773;-68
2022/10/13 03:21:39;;;;;;;29.00;19.00;;;;;;;2.40;82.34;100347.74;421575;1281;143073;-69
2022/10/13 03:31:45;;;;;;;27.40;19.30;;;;;;;2.31;82.48;100352.23;420575;1274;143899;-68
2022/10/13 03:41:51;;;;;;;27.10;18.90;;;;;;;2.36;83.08;100353.36;420642;1275;142212;-68
2022/10/13 03:51:57;;;;;;;25.80;17.90;;;;;;;2.36;83.36;100351.63;420775;1275;144432;-69
2022/10/13 04:02:02;;;;;;;26.00;19.90;;;;;;;2.32;83.51;100349.63;421048;1282;143560;-69
2022/10/13 04:12:08;;;;;;;32.10;18.70;;;;;;;2.43;83.86;100350.30;419449;1279;144912;-69
2022/10/13 04:22:14;;;;;;;28.50;19.50;;;;;;;2.37;83.81;100347.45;420199;1275;151815;-68
2022/10/13 04:32:20;;;;;;;25.20;16.80;;;;;;;2.33;84.13;100348.56;421049;1281;184961;-69
2022/10/13 04:42:26;;;;;;;26.00;19.00;;;;;;;2.00;83.11;100354.30;420567;1275;146890;-70
2022/10/13 04:52:33;;;;;;;26.00;18.50;;;;;;;1.89;83.53;100351.73;428995;1278;144048;-69
2022/10/13 05:02:39;;;;;;;27.00;18.30;;;;;;;1.86;83.93;100359.87;432959;1282;142824;-68
2022/10/13 05:12:45;;;;;;;31.60;20.80;;;;;;;2.05;84.48;100355.26;420977;1282;143261;-69
2022/10/13 05:22:50;;;;;;;28.50;20.30;;;;;;;2.27;84.95;100353.86;434251;1274;143766;-68
2022/10/13 05:32:56;;;;;;;35.00;21.30;;;;;;;2.49;84.75;100348.29;426626;1283;147497;-72
2022/10/13 05:43:03;;;;;;;26.00;18.50;;;;;;;2.76;84.23;100349.16;436682;1284;141859;-71
2022/10/13 05:53:09;;;;;;;23.50;17.40;;;;;;;3.13;83.73;100353.09;436692;1281;142895;-71
2022/10/13 06:03:17;;;;;;;23.00;16.00;;;;;;;4.89;83.90;100354.17;432499;1283;141863;-72
2022/10/13 06:13:23;;;;;;;23.30;12.90;;;;;;;9.55;80.10;100343.97;436810;1281;144278;-73
2022/10/13 06:23:29;;;;;;;16.80;13.00;;;;;;;13.58;72.24;100335.16;436021;1281;144007;-74
2022/10/13 06:33:35;;;;;;;16.80;10.90;;;;;;;16.53;65.03;100331.38;436911;1281;142009;-74
2022/10/13 06:43:40;;;;;;;18.60;12.30;;;;;;;18.71;59.48;100318.02;433680;1286;141511;-73
2022/10/13 06:53:46;;;;;;;15.00;11.10;;;;;;;20.49;54.58;100310.51;430383;1288;143855;-73
2022/10/13 07:03:52;;;;;;;16.00;9.30;;;;;;;22.41;50.55;100309.73;428120;1287;142414;-73
2022/10/13 07:13:58;;;;;;;14.10;10.50;;;;;;;23.77;46.40;100303.85;422561;1281;142794;-73
2022/10/13 07:24:04;;;;;;;13.50;11.30;;;;;;;25.25;43.42;100287.59;427224;1281;143255;-72
2022/10/13 07:34:10;;;;;;;10.80;8.50;;;;;;;26.24;39.97;100278.98;433751;1287;142881;-73
2022/10/13 07:44:16;;;;;;;10.20;7.90;;;;;;;26.88;37.54;100269.58;433660;1282;144314;-72
2022/10/13 07:54:22;;;;;;;9.40;7.90;;;;;;;27.46;35.79;100250.70;436932;1281;142566;-73
2022/10/13 08:04:32;;;;;;;11.20;7.40;;;;;;;28.16;34.06;100246.61;436897;1282;141788;-73
2022/10/13 08:14:38;;;;;;;8.20;6.10;;;;;;;29.88;32.82;100233.36;433702;1280;142852;-73
2022/10/13 08:24:44;;;;;;;7.30;6.60;;;;;;;30.80;30.81;100220.91;436908;1283;143372;-72
2022/10/13 08:34:50;;;;;;;10.10;8.00;;;;;;;31.25;29.55;100218.39;437011;1281;142236;-73
2022/10/13 08:45:00;;;;;;;8.80;7.10;;;;;;;30.93;28.21;100213.42;436228;1281;141867;-74
2022/10/13 08:55:31;;;;;;;11.20;6.60;;;;;;;31.06;28.39;100214.21;436951;1288;141550;-74
2022/10/13 09:05:43;;;;;;;8.90;6.40;;;;;;;29.90;27.70;100208.20;435459;1282;144770;-73
2022/10/13 09:15:51;;;;;;;11.60;4.80;;;;;;;23.37;30.55;100207.63;429458;1280;146852;-73
2022/10/13 09:25:57;;;;;;;7.70;5.30;;;;;;;18.33;35.56;100195.23;426797;1282;142252;-73
2022/10/13 09:36:15;;;;;;;8.90;5.50;;;;;;;16.05;39.07;100193.22;426466;1275;142326;-73
2022/10/13 09:46:25;;;;;;;8.20;4.60;;;;;;;14.58;41.96;100192.54;424971;1281;145250;-72
2022/10/13 09:56:38;;;;;;;8.20;4.50;;;;;;;14.31;43.49;100186.02;436183;1281;141975;-74
2022/10/13 10:06:45;;;;;;;5.50;3.40;;;;;;;13.74;45.02;100173.00;436852;1287;144772;-72
2022/10/13 10:17:00;;;;;;;6.30;3.00;;;;;;;13.47;45.78;100152.83;436855;1275;141591;-73
2022/10/13 10:27:14;;;;;;;5.40;2.80;;;;;;;13.39;45.75;100140.14;436124;1281;143207;-73
2022/10/13 10:37:39;;;;;;;8.80;4.00;;;;;;;13.19;46.31;100138.43;435124;1281;155230;-72
2022/10/13 10:47:48;;;;;;;8.40;4.40;;;;;;;13.12;47.14;100131.50;436145;1281;141698;-73
2022/10/13 10:58:01;;;;;;;8.70;3.70;;;;;;;13.25;47.65;100119.60;436850;1281;143548;-73
2022/10/13 11:08:28;;;;;;;6.90;3.50;;;;;;;13.29;48.07;100114.19;431724;1281;142024;-72
2022/10/13 11:19:04;;;;;;;8.40;4.00;;;;;;;13.34;48.43;100101.24;436644;1288;196641;-73
2022/10/13 11:29:39;;;;;;;7.20;4.00;;;;;;;13.38;48.69;100091.82;436791;1281;141450;-73
2022/10/13 11:40:14;;;;;;;5.60;4.00;;;;;;;13.32;48.99;100075.14;431017;1280;205654;-72
2022/10/13 11:50:30;;;;;;;5.90;4.50;;;;;;;13.44;49.21;100071.17;436075;1288;141839;-72
2022/10/13 12:00:35;;;;;;;6.20;4.20;;;;;;;13.56;49.36;100061.09;436857;1282;143599;-71
2022/10/13 12:10:41;;;;;;;5.90;4.40;;;;;;;13.63;49.13;100043.55;436887;1280;141731;-72
2022/10/13 12:20:53;;;;;;;8.10;4.60;;;;;;;13.67;49.14;100033.58;436119;1274;141751;-73
2022/10/13 12:31:00;;;;;;;5.90;4.80;;;;;;;13.71;49.08;100020.63;436730;1281;143421;-73
2022/10/13 12:41:07;;;;;;;6.40;4.80;;;;;;;13.70;49.18;100012.08;434868;1281;142214;-71
2022/10/13 12:51:24;;;;;;;11.40;5.00;;;;;;;13.72;49.57;99998.92;420224;1281;196505;-71
2022/10/13 13:01:34;;;;;;;6.90;5.00;;;;;;;13.83;49.63;99992.70;424243;1275;143233;-73
2022/10/13 13:11:41;;;;;;;6.30;3.90;;;;;;;13.83;49.06;99994.98;436106;1274;146132;-73
2022/10/13 13:21:46;;;;;;;5.70;5.00;;;;;;;13.75;49.35;99980.10;436747;1281;142372;-73
2022/10/13 13:31:52;;;;;;;9.20;4.20;;;;;;;13.74;49.68;99969.76;436794;1281;145979;-73
2022/10/13 13:41:58;;;;;;;8.40;5.60;;;;;;;13.77;49.69;99959.71;436094;1274;197292;-72
2022/10/13 13:52:03;;;;;;;9.60;4.80;;;;;;;13.77;49.70;99953.61;436852;1282;143723;-71
2022/10/13 14:02:15;;;;;;;8.10;3.90;;;;;;;13.73;49.79;99951.92;436864;1286;142325;-72
2022/10/13 14:12:21;;;;;;;5.20;4.60;;;;;;;13.68;49.93;99949.48;436430;1278;207374;-72
2022/10/13 14:22:27;;;;;;;7.70;4.20;;;;;;;13.61;50.20;99942.02;436843;1274;142240;-74
2022/10/13 14:32:34;;;;;;;10.40;5.60;;;;;;;13.54;50.59;99939.85;436060;1282;144402;-74
2022/10/13 14:42:41;;;;;;;8.50;5.20;;;;;;;13.42;50.98;99938.76;436806;1283;142560;-73
2022/10/13 14:52:46;;;;;;;10.30;6.10;;;;;;;13.28;51.44;99933.92;436843;1281;142758;-73
2022/10/13 15:02:52;;;;;;;12.20;6.70;;;;;;;13.07;52.07;99931.63;435964;1281;141592;-73
2022/10/13 15:12:58;;;;;;;12.90;8.40;;;;;;;12.86;52.60;99929.08;436800;1281;141495;-73
2022/10/13 15:23:04;;;;;;;10.40;6.70;;;;;;;12.59;53.42;99924.90;436705;1284;142373;-73
2022/10/13 15:33:09;;;;;;;12.70;7.20;;;;;;;12.30;54.11;99930.67;436096;1274;144440;-73
2022/10/13 15:43:16;;;;;;;10.80;8.30;;;;;;;11.99;54.78;99924.36;424376;1275;152022;-72
2022/10/13 15:53:22;;;;;;;13.20;8.20;;;;;;;11.66;55.70;99916.45;419283;1274;146030;-72
2022/10/13 16:03:28;;;;;;;16.60;10.70;;;;;;;11.32;56.56;99907.70;436711;1274;142012;-72
2022/10/13 16:13:34;;;;;;;14.50;9.90;;;;;;;11.02;57.39;99913.04;431672;1280;142223;-73
2022/10/13 16:23:40;;;;;;;20.00;12.40;;;;;;;10.73;58.13;99913.52;435943;1281;142191;-71
2022/10/13 16:33:46;;;;;;;18.60;12.40;;;;;;;10.45;59.11;99911.12;429229;1281;145648;-72
2022/10/13 16:43:52;;;;;;;17.70;12.00;;;;;;;10.25;60.03;99903.49;420766;1275;142359;-73
2022/10/13 16:53:59;;;;;;;20.90;12.40;;;;;;;10.07;60.66;99901.89;434292;1276;198486;-71
2022/10/13 17:04:09;;;;;;;26.20;17.20;;;;;;;9.84;61.31;99902.98;428021;1274;141745;-72
2022/10/13 17:14:14;;;;;;;30.90;19.90;;;;;;;9.61;62.12;99894.80;425056;1274;142480;-71
2022/10/13 17:24:20;;;;;;;27.30;19.50;;;;;;;9.43;62.69;99895.61;428648;1275;141401;-73
2022/10/13 17:34:26;;;;;;;30.90;20.50;;;;;;;9.25;63.54;99887.85;425960;1275;142193;-72
2022/10/13 17:44:32;;;;;;;30.00;20.20;;;;;;;9.06;63.92;99891.44;420079;1274;142529;-71
2022/10/13 17:54:38;;;;;;;28.50;21.50;;;;;;;8.88;64.88;99882.23;427751;1281;143006;-71
2022/10/13 18:04:44;;;;;;;25.80;20.80;;;;;;;8.77;65.33;99878.80;423194;1281;143311;-70
2022/10/13 18:14:50;;;;;;;28.80;21.80;;;;;;;8.62;66.12;99878.36;420624;1281;143485;-74
2022/10/13 18:24:56;;;;;;;28.10;22.10;;;;;;;8.43;66.66;99878.40;420308;1275;147431;-72
2022/10/13 18:35:02;;;;;;;32.90;24.00;;;;;;;8.23;67.24;99880.09;425378;1281;146724;-72
2022/10/13 18:45:09;;;;;;;30.90;24.20;;;;;;;8.03;67.72;99886.29;426085;1281;143398;-73
2022/10/13 18:55:15;;;;;;;36.70;24.10;;;;;;;7.91;68.31;99878.33;436702;1281;143818;-73
2022/10/13 19:05:20;;;;;;;32.00;23.80;;;;;;;7.91;69.06;99876.91;432660;1275;142640;-72
2022/10/13 19:15:26;;;;;;;26.80;21.20;;;;;;;7.86;69.32;99871.56;427037;1281;143190;-72
2022/10/13 19:25:32;;;;;;;33.40;22.70;;;;;;;7.80;69.77;99863.01;428338;1280;142839;-73
2022/10/13 19:35:43;;;;;;;37.60;25.50;;;;;;;7.70;70.24;99860.86;425490;1281;165321;-73
2022/10/13 19:45:52;;;;;;;35.10;26.50;;;;;;;7.59;70.49;99853.16;422732;1274;141392;-72
2022/10/13 19:56:04;;;;;;;36.60;25.40;;;;;;;7.54;71.28;99849.56;430351;1278;141958;-63
2022/10/13 20:06:10;;;;;;;36.10;26.90;;;;;;;7.51;71.52;99851.79;429844;1282;145773;-63
2022/10/13 20:16:20;;;;;;;31.30;23.70;;;;;;;7.42;71.60;99845.61;433427;1274;142865;-63
2022/10/13 20:26:26;;;;;;;38.60;25.60;;;;;;;7.55;72.01;99840.81;435881;1287;143657;-63
2022/10/13 20:36:32;;;;;;;33.60;22.70;;;;;;;7.56;71.89;99846.71;433882;1288;141762;-62
2022/10/13 20:46:43;;;;;;;31.60;22.90;;;;;;;7.41;72.30;99843.74;428853;1281;143154;-64
2022/10/13 20:56:51;;;;;;;32.70;23.00;;;;;;;7.28;72.61;99835.60;422219;1274;143015;-64
2022/10/13 21:06:57;;;;;;;31.40;25.70;;;;;;;7.23;72.93;99831.66;436817;1287;143564;-64
2022/10/13 21:17:02;;;;;;;32.70;23.40;;;;;;;7.23;73.25;99832.35;428025;1281;145590;-63
2022/10/13 21:27:08;;;;;;;32.30;23.60;;;;;;;7.31;73.45;99827.30;425797;1280;142880;-63
2022/10/13 21:37:14;;;;;;;33.20;22.90;;;;;;;7.28;73.49;99826.90;420300;1281;143881;-62
2022/10/13 21:47:20;;;;;;;32.00;24.00;;;;;;;7.31;73.60;99822.08;430857;1281;141801;-64
2022/10/13 21:57:26;;;;;;;26.90;21.70;;;;;;;7.20;73.64;99812.46;428458;1281;144462;-63
2022/10/13 22:07:32;;;;;;;31.80;23.20;;;;;;;7.01;73.91;99811.77;425274;1282;141249;-63
2022/10/13 22:17:38;;;;;;;28.30;22.20;;;;;;;6.85;74.50;99801.88;429816;1282;143638;-63
2022/10/13 22:27:43;;;;;;;29.40;20.80;;;;;;;6.76;74.86;99790.42;428714;1281;145860;-63
2022/10/13 22:37:49;;;;;;;30.70;23.50;;;;;;;6.66;74.99;99790.35;424581;1274;141507;-63
2022/10/13 22:47:55;;;;;;;34.40;21.30;;;;;;;6.54;75.42;99786.35;420705;1281;142623;-63
2022/10/13 22:58:00;;;;;;;32.10;22.90;;;;;;;6.41;75.87;99780.16;421119;1278;143460;-63
2022/10/13 23:08:06;;;;;;;31.20;23.40;;;;;;;6.30;76.31;99773.33;420441;1278;142289;-63
2022/10/13 23:18:12;;;;;;;28.30;22.30;;;;;;;6.15;76.68;99772.91;419090;1281;143167;-64
2022/10/13 23:28:18;;;;;;;33.70;24.60;;;;;;;6.04;77.13;99767.80;420272;1281;143064;-63
2022/10/13 23:38:25;;;;;;;28.80;22.20;;;;;;;5.98;77.70;99768.58;419505;1281;143237;-64
2022/10/13 23:48:31;;;;;;;30.90;23.70;;;;;;;5.84;77.84;99769.31;421461;1282;141780;-63
2022/10/13 23:58:39;;;;;;;27.60;21.90;;;;;;;5.70;78.46;99763.61;421385;1281;142823;-64
